Time;durP1;ratioP1;P1;durP2;ratioP2;P2;SDS_P1;SDS_P2;PMS_P1;PMS_P2;Temp;Humidity;BMP_temperature;BMP_pressure;BME280_temperature;BME280_humidity;BME280_pressure;Samples;Min_cycle;Max_cycle;Signal;HPM_P1;HPM_P2
2023/01/13 00:00:05;;;;;;;18.60;18.00;;;21.80;63.70;;;;;;5051311;28;20469;-56
2023/01/13 00:02:33;;;;;;;18.30;17.70;;;21.80;63.70;;;;;;5051562;28;20455;-59
2023/01/13 00:05:00;;;;;;;18.57;17.97;;;21.80;63.80;;;;;;5051219;28;20464;-58
2023/01/13 00:07:27;;;;;;;18.57;17.97;;;21.80;63.90;;;;;;5051539;28;20521;-58
2023/01/13 00:09:56;;;;;;;17.53;17.03;;;21.70;63.90;;;;;;5051394;28;20483;-58
2023/01/13 00:12:23;;;;;;;18.53;17.90;;;21.70;64.00;;;;;;5051337;28;20480;-58
2023/01/13 00:14:50;;;;;;;18.83;18.23;;;21.70;64.10;;;;;;5050994;28;20480;-58
2023/01/13 00:17:17;;;;;;;18.40;17.80;;;21.70;64.30;;;;;;5051327;28;20550;-59
2023/01/13 00:19:45;;;;;;;18.60;18.00;;;21.60;64.30;;;;;;5051243;28;20441;-59
2023/01/13 00:22:12;;;;;;;18.27;17.57;;;21.60;64.30;;;;;;5052539;28;20871;-59
2023/01/13 00:24:39;;;;;;;17.90;17.30;;;21.60;64.50;;;;;;5054748;28;20547;-57
2023/01/13 00:27:07;;;;;;;18.97;18.27;;;21.60;64.80;;;;;;5055146;28;20937;-57
2023/01/13 00:29:35;;;;;;;18.40;17.70;;;21.60;64.90;;;;;;5035003;28;20437;-58
2023/01/13 00:32:02;;;;;;;18.10;17.50;;;21.60;64.90;;;;;;5035253;28;20510;-60
2023/01/13 00:34:29;;;;;;;18.90;18.30;;;21.60;64.90;;;;;;5037980;28;20484;-57
2023/01/13 00:36:56;;;;;;;18.30;17.60;;;21.60;65.00;;;;;;5054810;28;20532;-58
2023/01/13 00:39:23;;;;;;;18.27;17.67;;;21.60;65.00;;;;;;5054904;28;20451;-58
2023/01/13 00:44:36;;;;;;;18.37;17.77;;;21.60;65.00;;;;;;5054684;28;20984;-58
2023/01/13 00:47:03;;;;;;;18.40;17.80;;;21.50;65.00;;;;;;5055069;28;20519;-56
2023/01/13 00:49:31;;;;;;;19.10;18.50;;;21.50;65.20;;;;;;5055280;28;20474;-59
2023/01/13 00:51:58;;;;;;;18.60;18.00;;;21.50;65.20;;;;;;5055018;28;20487;-61
2023/01/13 00:54:25;;;;;;;18.93;18.33;;;21.50;65.10;;;;;;5054636;28;20491;-59
2023/01/13 00:56:52;;;;;;;18.67;18.03;;;21.50;65.40;;;;;;5054984;28;20925;-59
2023/01/13 00:59:19;;;;;;;19.07;18.37;;;21.50;65.40;;;;;;5054808;28;20494;-59
2023/01/13 01:01:48;;;;;;;18.10;17.50;;;21.50;65.40;;;;;;5054686;28;20502;-60
2023/01/13 01:04:15;;;;;;;18.27;17.67;;;21.40;65.30;;;;;;5054498;28;20455;-59
2023/01/13 01:06:42;;;;;;;18.30;17.70;;;21.40;65.50;;;;;;5054731;28;20522;-56
2023/01/13 01:09:13;;;;;;;18.30;17.70;;;21.40;65.50;;;;;;5054684;28;20444;-59
2023/01/13 01:11:40;;;;;;;18.50;17.80;;;21.40;65.50;;;;;;5054699;28;20459;-59
2023/01/13 01:14:09;;;;;;;18.20;17.60;;;21.40;65.60;;;;;;5054495;28;20997;-59
2023/01/13 01:16:38;;;;;;;19.13;18.50;;;21.40;65.70;;;;;;5054118;28;20883;-59
2023/01/13 01:19:06;;;;;;;19.13;18.43;;;21.30;65.60;;;;;;5054311;28;20448;-58
2023/01/13 01:21:34;;;;;;;18.93;18.33;;;21.40;65.80;;;;;;5054389;28;20444;-56
2023/01/13 01:24:03;;;;;;;18.87;18.23;;;21.30;65.80;;;;;;5054096;28;20455;-56
2023/01/13 01:26:31;;;;;;;19.33;18.73;;;21.30;66.00;;;;;;5054082;28;20605;-59
2023/01/13 01:28:58;;;;;;;18.60;18.00;;;21.30;66.00;;;;;;5054105;28;20535;-57
2023/01/13 01:31:27;;;;;;;18.77;18.07;;;21.30;66.00;;;;;;5054023;28;20534;-60
2023/01/13 01:33:55;;;;;;;18.80;18.20;;;21.30;66.10;;;;;;5053536;28;20483;-58
2023/01/13 01:36:26;;;;;;;18.97;18.27;;;21.30;66.90;;;;;;5053637;28;20452;-60
2023/01/13 01:38:52;;;;;;;19.30;18.60;;;21.30;66.00;;;;;;5054034;28;20494;-60
2023/01/13 01:41:22;;;;;;;18.97;18.30;;;21.30;66.20;;;;;;5054101;28;20514;-59
2023/01/13 01:44:05;;;;;;;18.43;17.83;;;21.30;66.30;;;;;;5054166;28;20448;-56
2023/01/13 01:46:35;;;;;;;19.03;18.33;;;21.30;66.20;;;;;;5053371;28;20455;-59
2023/01/13 01:49:15;;;;;;;18.23;17.60;;;21.30;66.30;;;;;;5053863;28;20456;-59
2023/01/13 01:51:46;;;;;;;18.60;18.00;;;21.30;66.40;;;;;;5053708;28;20527;-59
2023/01/13 01:54:20;;;;;;;18.33;17.73;;;21.30;66.50;;;;;;5053460;28;20574;-56
2023/01/13 01:56:48;;;;;;;18.50;17.90;;;21.20;66.20;;;;;;5053806;28;20452;-59
2023/01/13 01:59:16;;;;;;;19.23;18.63;;;21.20;66.30;;;;;;5053539;28;20444;-58
2023/01/13 02:01:44;;;;;;;19.80;19.07;;;21.20;66.40;;;;;;5053530;28;20827;-59
2023/01/13 02:04:15;;;;;;;19.10;18.50;;;21.20;66.40;;;;;;5053475;28;20447;-60
2023/01/13 02:06:46;;;;;;;19.50;18.90;;;21.20;66.50;;;;;;5052983;28;20790;-57
2023/01/13 02:09:13;;;;;;;18.30;17.70;;;21.20;66.60;;;;;;5053324;28;20546;-60
2023/01/13 02:14:28;;;;;;;18.60;18.00;;;21.20;66.70;;;;;;5053144;28;20614;-59
2023/01/13 02:17:10;;;;;;;19.53;18.83;;;21.20;66.90;;;;;;5052981;28;20448;-59
2023/01/13 02:20:07;;;;;;;19.03;18.43;;;21.20;66.70;;;;;;5053063;28;20531;-59
2023/01/13 02:22:58;;;;;;;18.80;18.20;;;21.10;66.80;;;;;;5044616;28;20531;-56
2023/01/13 02:25:46;;;;;;;18.63;18.03;;;21.10;66.80;;;;;;5053399;28;20873;-60
2023/01/13 02:31:44;;;;;;;19.27;18.57;;;21.10;66.90;;;;;;5052911;28;20432;-60
2023/01/13 02:34:17;;;;;;;18.20;17.67;;;21.10;66.90;;;;;;5052876;28;20491;-57
2023/01/13 02:36:52;;;;;;;18.57;17.97;;;21.10;66.90;;;;;;5053045;28;20455;-58
2023/01/13 02:39:25;;;;;;;19.30;18.60;;;21.10;66.90;;;;;;5052473;28;20817;-58
2023/01/13 02:44:45;;;;;;;18.23;17.63;;;21.10;66.80;;;;;;5052254;28;20431;-57
2023/01/13 02:47:18;;;;;;;18.60;18.00;;;21.10;66.90;;;;;;5052603;28;21550;-59
2023/01/13 02:49:49;;;;;;;18.60;18.00;;;21.10;67.00;;;;;;5052261;28;20441;-60
2023/01/13 02:52:22;;;;;;;18.97;18.20;;;21.10;67.00;;;;;;5052608;28;20448;-59
2023/01/13 02:54:55;;;;;;;19.10;18.50;;;21.10;67.00;;;;;;5052500;28;20496;-59
2023/01/13 02:57:23;;;;;;;19.67;18.97;;;21.00;66.90;;;;;;5052628;28;20448;-59
2023/01/13 02:59:53;;;;;;;18.40;17.80;;;21.00;66.90;;;;;;5052144;28;20453;-58
2023/01/13 03:02:24;;;;;;;18.80;18.20;;;21.00;67.00;;;;;;5053134;28;20539;-59
2023/01/13 03:04:54;;;;;;;18.80;18.20;;;21.00;66.90;;;;;;5052647;28;20540;-59
2023/01/13 03:07:54;;;;;;;18.90;18.20;;;21.00;67.00;;;;;;5052631;28;20539;-59
2023/01/13 03:10:34;;;;;;;18.97;18.27;;;21.00;67.10;;;;;;5052027;28;20949;-59
2023/01/13 03:13:12;;;;;;;18.70;18.10;;;21.00;67.20;;;;;;5052331;28;20509;-58
2023/01/13 03:15:47;;;;;;;19.27;18.57;;;21.00;67.20;;;;;;5037681;28;20886;-57
2023/01/13 03:18:20;;;;;;;18.33;17.73;;;21.00;67.20;;;;;;5052036;28;20447;-59
2023/01/13 03:20:59;;;;;;;18.70;18.10;;;21.00;67.40;;;;;;5051699;28;20455;-56
2023/01/13 03:23:31;;;;;;;18.50;17.90;;;21.00;67.50;;;;;;5052153;28;20439;-58
2023/01/13 03:26:07;;;;;;;18.80;18.20;;;21.00;67.40;;;;;;5051891;28;20479;-59
2023/01/13 03:28:40;;;;;;;18.60;18.00;;;21.00;67.30;;;;;;5051886;28;21198;-56
2023/01/13 03:31:13;;;;;;;18.70;18.00;;;21.00;68.30;;;;;;5051404;28;20452;-59
2023/01/13 03:33:46;;;;;;;18.97;18.37;;;21.00;67.50;;;;;;5052004;28;20486;-57
2023/01/13 03:36:16;;;;;;;19.57;18.90;;;21.00;67.70;;;;;;5052211;28;20488;-59
2023/01/13 03:38:47;;;;;;;19.23;18.53;;;21.00;68.50;;;;;;5052173;28;20437;-57
2023/01/13 03:41:21;;;;;;;18.90;18.30;;;21.00;67.70;;;;;;5051488;28;20448;-57
2023/01/13 03:46:46;;;;;;;18.90;18.20;;;20.90;67.50;;;;;;5051863;28;20419;-58
2023/01/13 03:49:19;;;;;;;19.10;18.50;;;20.90;67.70;;;;;;5051351;28;20484;-60
2023/01/13 03:51:52;;;;;;;19.13;18.43;;;20.90;67.50;;;;;;5051664;28;20519;-59
2023/01/13 03:54:22;;;;;;;18.80;18.20;;;20.90;67.80;;;;;;5051563;28;20754;-59
2023/01/13 03:56:54;;;;;;;19.27;18.57;;;20.90;67.60;;;;;;5051711;28;20530;-58
2023/01/13 03:59:27;;;;;;;18.87;18.17;;;20.90;67.70;;;;;;5051204;28;20444;-59
2023/01/13 04:02:01;;;;;;;19.93;19.23;;;20.90;67.60;;;;;;5051338;28;20991;-58
2023/01/13 04:04:33;;;;;;;18.53;17.93;;;20.90;67.70;;;;;;5051463;28;20503;-59
2023/01/13 04:07:10;;;;;;;18.70;18.10;;;20.90;67.70;;;;;;5051397;28;20450;-59
2023/01/13 04:09:46;;;;;;;19.30;18.60;;;20.90;67.90;;;;;;5050897;28;20530;-58
2023/01/13 04:12:18;;;;;;;18.87;18.27;;;20.90;68.10;;;;;;5051583;28;20816;-57
2023/01/13 04:14:46;;;;;;;18.80;18.10;;;21.00;68.00;;;;;;5051616;28;20567;-59
2023/01/13 04:17:13;;;;;;;19.00;18.37;;;21.00;68.00;;;;;;5051484;28;20476;-56
2023/01/13 04:19:41;;;;;;;19.10;18.50;;;21.00;68.00;;;;;;5050938;28;20480;-57
2023/01/13 04:22:08;;;;;;;18.93;18.33;;;21.00;68.10;;;;;;5051379;28;20502;-56
2023/01/13 04:24:36;;;;;;;19.20;18.50;;;21.00;68.00;;;;;;5051223;28;20570;-57
2023/01/13 04:27:03;;;;;;;19.60;18.80;;;21.00;67.90;;;;;;5051309;28;20452;-56
2023/01/13 04:29:29;;;;;;;19.17;18.50;;;21.00;67.90;;;;;;5051048;28;20479;-59
2023/01/13 04:31:56;;;;;;;19.63;18.60;;;21.00;67.90;;;;;;5051480;28;20451;-60
2023/01/13 04:34:23;;;;;;;19.47;18.80;;;21.00;67.90;;;;;;5051015;28;20491;-59
2023/01/13 04:36:52;;;;;;;18.80;18.10;;;21.00;67.80;;;;;;5051277;28;20567;-59
2023/01/13 04:39:19;;;;;;;18.73;18.03;;;21.10;68.00;;;;;;5050808;28;20543;-58
2023/01/13 04:41:58;;;;;;;19.60;18.80;;;21.10;68.10;;;;;;5051151;28;20527;-58
2023/01/13 04:44:25;;;;;;;19.47;18.57;;;21.10;68.30;;;;;;5051199;28;20468;-57
2023/01/13 04:46:52;;;;;;;19.27;18.57;;;21.10;68.20;;;;;;5051068;28;20782;-59
2023/01/13 04:49:19;;;;;;;18.60;18.00;;;21.10;68.20;;;;;;5050625;28;20570;-60
2023/01/13 04:51:46;;;;;;;21.73;20.83;;;21.10;68.30;;;;;;5051080;28;20452;-59
2023/01/13 04:54:15;;;;;;;20.40;19.70;;;21.10;68.30;;;;;;5050952;28;20555;-60
2023/01/13 04:56:43;;;;;;;20.00;19.30;;;21.10;68.30;;;;;;5050854;28;20483;-58
2023/01/13 04:59:11;;;;;;;19.50;18.80;;;21.10;69.00;;;;;;5050929;28;20815;-59
2023/01/13 05:01:38;;;;;;;19.80;19.00;;;21.10;68.30;;;;;;5051033;28;20452;-58
2023/01/13 05:04:06;;;;;;;20.30;19.43;;;21.10;68.20;;;;;;5050989;28;20553;-59
2023/01/13 05:06:33;;;;;;;19.50;18.80;;;21.10;68.20;;;;;;5050733;28;20479;-59
2023/01/13 05:09:00;;;;;;;20.17;19.33;;;21.10;68.10;;;;;;5052661;28;20456;-57
2023/01/13 05:17:00;;;;;;;20.10;19.40;;;21.20;68.40;;;;;;5054447;28;20505;-58
2023/01/13 05:19:28;;;;;;;20.43;19.50;;;21.20;68.50;;;;;;5054247;28;20440;-56
2023/01/13 05:27:25;;;;;;;20.30;19.60;;;21.20;68.60;;;;;;5053913;28;20936;-50
2023/01/13 05:29:53;;;;;;;20.37;19.57;;;21.20;68.40;;;;;;5053497;28;20448;-50
2023/01/13 05:32:20;;;;;;;20.33;19.63;;;21.20;68.40;;;;;;5054292;28;20448;-50
2023/01/13 05:34:48;;;;;;;20.77;19.80;;;21.20;68.40;;;;;;5053837;28;20555;-50
2023/01/13 05:37:15;;;;;;;20.70;19.90;;;21.20;68.40;;;;;;5053754;28;20531;-51
2023/01/13 05:45:29;;;;;;;20.40;19.63;;;21.20;68.50;;;;;;5012083;28;20485;-49
2023/01/13 05:47:56;;;;;;;19.77;19.07;;;21.30;68.90;;;;;;5035531;28;20512;-50
2023/01/13 05:50:23;;;;;;;20.97;20.17;;;21.30;69.00;;;;;;5053511;28;20478;-51
2023/01/13 05:52:50;;;;;;;20.20;19.50;;;21.30;68.80;;;;;;5053673;28;20440;-51
2023/01/13 05:55:17;;;;;;;21.23;20.33;;;21.30;68.80;;;;;;5053201;28;20968;-52
2023/01/13 05:57:46;;;;;;;22.10;20.70;;;21.40;68.90;;;;;;5053617;28;20535;-50
2023/01/13 06:00:14;;;;;;;23.77;22.57;;;21.40;69.00;;;;;;5053300;28;20456;-51
2023/01/13 06:02:41;;;;;;;24.87;23.70;;;21.40;69.20;;;;;;5053778;28;20448;-51
2023/01/13 06:05:08;;;;;;;23.57;22.37;;;21.40;69.60;;;;;;5053032;28;20539;-50
2023/01/13 06:07:35;;;;;;;23.00;21.70;;;21.50;70.40;;;;;;5053433;28;20448;-47
2023/01/13 06:10:02;;;;;;;22.80;21.20;;;21.50;72.80;;;;;;5053207;28;20519;-47
2023/01/13 06:12:29;;;;;;;23.80;21.70;;;21.50;75.90;;;;;;5053348;28;20444;-48
2023/01/13 06:14:57;;;;;;;23.73;21.90;;;21.50;75.70;;;;;;5052820;28;20629;-48
2023/01/13 06:17:24;;;;;;;23.30;21.90;;;21.50;77.90;;;;;;5053144;28;20936;-50
2023/01/13 06:19:51;;;;;;;24.23;22.20;;;21.50;78.60;;;;;;5049283;28;20488;-55
2023/01/13 06:22:21;;;;;;;24.63;22.77;;;21.60;79.30;;;;;;5052064;28;20495;-52
2023/01/13 06:24:50;;;;;;;26.97;24.30;;;21.60;78.60;;;;;;5053138;28;20467;-53
2023/01/13 06:27:17;;;;;;;24.17;22.77;;;21.60;78.50;;;;;;5052663;28;20540;-52
2023/01/13 06:29:44;;;;;;;24.57;23.10;;;21.70;77.70;;;;;;5052876;28;20942;-51
2023/01/13 06:32:17;;;;;;;24.10;22.33;;;21.70;76.90;;;;;;5052807;28;20532;-51
2023/01/13 06:34:47;;;;;;;23.40;21.90;;;21.70;76.10;;;;;;5052847;28;20560;-53
2023/01/13 06:37:16;;;;;;;24.20;22.27;;;21.70;75.40;;;;;;5052761;28;20484;-52
2023/01/13 06:39:43;;;;;;;22.60;21.37;;;21.80;74.90;;;;;;5052858;28;20455;-52
2023/01/13 06:44:54;;;;;;;22.37;21.10;;;21.80;73.80;;;;;;5052770;28;20443;-51
2023/01/13 06:47:23;;;;;;;23.70;22.00;;;21.80;73.30;;;;;;5052566;28;20985;-52
2023/01/13 06:49:49;;;;;;;22.20;21.00;;;21.80;73.00;;;;;;5052377;28;20970;-52
2023/01/13 06:52:16;;;;;;;23.43;21.60;;;21.80;72.60;;;;;;5052605;28;20534;-53
2023/01/13 06:54:43;;;;;;;22.47;20.93;;;21.80;72.20;;;;;;5052423;28;21032;-52
2023/01/13 06:57:10;;;;;;;23.53;22.03;;;21.80;71.80;;;;;;5052414;28;20570;-51
2023/01/13 06:59:37;;;;;;;22.30;20.70;;;21.80;71.40;;;;;;5052253;28;20830;-52
2023/01/13 07:02:03;;;;;;;22.17;21.10;;;21.80;71.10;;;;;;5052326;28;20448;-52
2023/01/13 07:04:32;;;;;;;23.13;21.47;;;21.80;70.70;;;;;;5052286;28;20448;-53
2023/01/13 07:06:58;;;;;;;22.10;21.00;;;21.80;70.50;;;;;;5052278;28;20878;-52
2023/01/13 07:09:25;;;;;;;22.33;21.33;;;21.80;70.20;;;;;;5052167;28;20539;-52
2023/01/13 07:11:52;;;;;;;22.80;21.60;;;21.80;69.90;;;;;;5052229;28;20458;-51
2023/01/13 07:17:04;;;;;;;22.80;21.30;;;21.80;69.30;;;;;;5052300;28;20499;-52
2023/01/13 07:19:32;;;;;;;23.13;21.63;;;21.80;69.00;;;;;;5051986;28;20762;-54
2023/01/13 07:21:59;;;;;;;24.23;22.80;;;21.80;68.80;;;;;;5052122;28;20547;-53
2023/01/13 07:24:25;;;;;;;22.73;21.43;;;21.80;68.50;;;;;;5051903;28;20996;-51
2023/01/13 07:26:53;;;;;;;22.47;21.17;;;21.70;68.10;;;;;;5052016;28;20532;-51
2023/01/13 07:29:20;;;;;;;22.70;21.43;;;21.70;67.90;;;;;;5051711;28;20873;-52
2023/01/13 07:31:47;;;;;;;21.20;20.20;;;21.70;67.80;;;;;;5051500;28;20444;-51
2023/01/13 07:34:14;;;;;;;23.00;21.70;;;21.70;68.30;;;;;;5051793;28;20444;-51
2023/01/13 07:36:42;;;;;;;22.20;21.20;;;21.70;67.30;;;;;;5051742;28;20484;-52
2023/01/13 07:39:09;;;;;;;21.77;20.70;;;21.70;67.90;;;;;;5051708;28;20988;-54
2023/01/13 07:44:19;;;;;;;21.50;20.40;;;21.60;66.60;;;;;;5051940;28;20420;-53
2023/01/13 07:46:46;;;;;;;21.70;20.57;;;21.60;66.40;;;;;;5051674;28;20515;-53
2023/01/13 07:49:13;;;;;;;23.17;21.97;;;21.60;66.30;;;;;;5051531;28;20451;-54
2023/01/13 07:51:41;;;;;;;22.47;21.27;;;21.60;66.20;;;;;;5051516;28;20444;-51
2023/01/13 07:54:08;;;;;;;22.30;21.10;;;21.50;65.90;;;;;;5051626;28;20954;-52
2023/01/13 07:56:35;;;;;;;22.20;21.00;;;21.50;65.80;;;;;;5051489;28;20572;-52
2023/01/13 07:59:02;;;;;;;21.70;20.53;;;21.50;65.60;;;;;;5051454;28;20874;-51
2023/01/13 08:01:30;;;;;;;21.80;20.80;;;21.50;65.40;;;;;;5051473;28;20444;-51
2023/01/13 08:03:58;;;;;;;21.43;20.53;;;21.50;65.40;;;;;;5051506;28;20460;-51
2023/01/13 08:06:25;;;;;;;21.17;20.27;;;21.40;65.20;;;;;;5051622;28;20482;-51
2023/01/13 08:08:53;;;;;;;21.73;20.73;;;21.40;65.20;;;;;;5051379;28;20454;-51
2023/01/13 08:11:20;;;;;;;21.40;20.50;;;21.40;65.20;;;;;;5051294;28;20446;-52
2023/01/13 08:13:47;;;;;;;21.43;20.53;;;21.40;66.00;;;;;;5051448;28;20451;-52
2023/01/13 08:16:15;;;;;;;20.63;19.83;;;21.30;65.00;;;;;;5051273;28;20904;-51
2023/01/13 08:18:42;;;;;;;21.87;20.87;;;21.30;65.00;;;;;;5051366;28;20872;-52
2023/01/13 08:21:11;;;;;;;20.80;20.00;;;21.30;65.00;;;;;;5051301;28;20450;-51
2023/01/13 08:23:39;;;;;;;21.63;20.70;;;21.30;65.00;;;;;;5051279;28;20450;-51
2023/01/13 08:26:09;;;;;;;23.33;22.13;;;21.30;65.00;;;;;;5051001;28;20977;-51
2023/01/13 08:28:36;;;;;;;21.03;20.23;;;21.20;64.80;;;;;;5051230;28;20456;-52
2023/01/13 08:31:05;;;;;;;21.67;20.77;;;21.20;64.70;;;;;;5050895;28;20945;-52
2023/01/13 08:33:33;;;;;;;21.50;20.50;;;21.20;64.70;;;;;;5051214;28;20896;-52
2023/01/13 08:36:03;;;;;;;21.20;20.30;;;21.20;64.70;;;;;;5051245;28;20999;-54
2023/01/13 08:38:30;;;;;;;21.03;20.17;;;21.10;64.60;;;;;;5051247;28;20441;-51
2023/01/13 08:40:56;;;;;;;21.33;20.40;;;21.10;64.60;;;;;;5050959;28;20996;-53
2023/01/13 08:43:25;;;;;;;21.40;20.30;;;21.10;64.60;;;;;;5052324;28;20534;-51
2023/01/13 08:45:57;;;;;;;21.27;20.20;;;21.10;65.30;;;;;;5054784;28;20550;-51
2023/01/13 08:48:23;;;;;;;21.30;20.40;;;21.00;64.40;;;;;;5054840;28;20451;-52
2023/01/13 08:50:50;;;;;;;21.10;20.10;;;21.00;64.40;;;;;;5054693;28;20528;-52
2023/01/13 08:53:17;;;;;;;21.83;20.87;;;21.00;64.30;;;;;;5054736;28;20544;-51
2023/01/13 08:55:44;;;;;;;21.30;20.40;;;21.00;64.20;;;;;;5054749;28;20474;-52
2023/01/13 08:58:11;;;;;;;22.73;21.63;;;21.00;64.10;;;;;;5054729;28;20534;-51
2023/01/13 09:00:39;;;;;;;21.23;20.43;;;21.00;64.10;;;;;;5054331;28;21015;-52
2023/01/13 09:03:06;;;;;;;22.27;21.37;;;20.90;63.90;;;;;;5054716;28;20535;-53
2023/01/13 09:05:32;;;;;;;21.60;20.70;;;20.90;63.80;;;;;;5054409;28;21028;-52
2023/01/13 09:07:59;;;;;;;22.10;21.13;;;20.90;64.50;;;;;;5054692;28;20950;-51
2023/01/13 09:10:26;;;;;;;21.63;20.77;;;20.90;63.70;;;;;;5054365;28;20451;-51
2023/01/13 09:15:39;;;;;;;21.23;20.43;;;20.80;63.50;;;;;;5054359;28;20435;-52
2023/01/13 09:18:05;;;;;;;22.73;21.73;;;20.80;63.40;;;;;;5054400;28;20997;-51
2023/01/13 09:20:32;;;;;;;22.53;21.60;;;20.80;63.30;;;;;;5054192;28;20878;-51
2023/01/13 09:22:59;;;;;;;21.43;20.50;;;20.70;63.00;;;;;;5054288;28;20531;-53
2023/01/13 09:25:26;;;;;;;22.73;21.60;;;20.70;62.90;;;;;;5054172;28;20830;-53
2023/01/13 09:27:53;;;;;;;21.70;20.80;;;20.70;62.80;;;;;;5054192;28;20855;-51
2023/01/13 09:30:20;;;;;;;23.07;22.00;;;20.70;62.70;;;;;;5054032;28;20539;-52
2023/01/13 09:32:48;;;;;;;22.70;21.50;;;20.70;62.70;;;;;;5054124;28;20450;-52
2023/01/13 09:35:16;;;;;;;21.57;20.77;;;20.70;62.60;;;;;;5054065;28;20460;-51
2023/01/13 09:37:43;;;;;;;22.03;20.93;;;20.70;62.60;;;;;;5053980;28;20533;-51
2023/01/13 09:40:17;;;;;;;21.83;20.83;;;20.60;62.40;;;;;;5053760;28;20448;-51
2023/01/13 09:45:38;;;;;;;22.00;21.10;;;20.60;62.30;;;;;;5053961;28;20443;-51
2023/01/13 09:48:13;;;;;;;21.33;20.23;;;20.50;62.10;;;;;;5053874;28;20436;-52
2023/01/13 09:50:57;;;;;;;21.00;20.20;;;20.50;62.00;;;;;;5053522;28;20444;-51
2023/01/13 09:53:28;;;;;;;21.30;20.13;;;20.50;61.90;;;;;;5053715;28;20439;-51
2023/01/13 09:55:55;;;;;;;21.27;20.47;;;20.50;61.80;;;;;;5053494;28;20466;-51
2023/01/13 09:58:23;;;;;;;20.90;20.10;;;20.50;61.90;;;;;;5053658;28;20441;-51
2023/01/13 10:01:00;;;;;;;20.90;20.10;;;20.50;61.80;;;;;;5053461;28;20463;-52
2023/01/13 10:03:29;;;;;;;21.77;20.40;;;20.50;61.70;;;;;;5053549;28;20446;-51
2023/01/13 10:06:03;;;;;;;21.30;20.40;;;20.60;61.80;;;;;;5053448;28;20547;-53
2023/01/13 10:08:33;;;;;;;21.33;20.50;;;20.50;61.50;;;;;;5053506;28;20494;-52
2023/01/13 10:13:12;;;;;;;21.20;20.30;;;20.50;61.50;;;;;;5053182;28;20937;-52
2023/01/13 10:13:53;;;;;;;20.80;19.90;;;20.50;61.50;;;;;;5053210;28;20502;-54
2023/01/13 10:16:29;;;;;;;21.67;20.67;;;20.50;61.50;;;;;;5053122;28;20463;-51
2023/01/13 10:19:05;;;;;;;21.60;20.43;;;20.50;61.40;;;;;;5053082;28;20443;-51
2023/01/13 10:22:17;;;;;;;22.27;21.37;;;20.50;61.40;;;;;;5053168;28;20448;-52
2023/01/13 10:25:17;;;;;;;21.57;20.57;;;20.50;61.20;;;;;;4971778;28;20580;-53
2023/01/13 10:27:48;;;;;;;23.00;22.00;;;20.50;61.20;;;;;;4969016;28;20522;-54
2023/01/13 10:30:20;;;;;;;21.77;20.63;;;20.50;61.20;;;;;;5028246;28;20884;-51
2023/01/13 10:32:52;;;;;;;20.60;19.90;;;20.50;61.20;;;;;;5052973;28;20964;-51
2023/01/13 10:35:49;;;;;;;21.87;20.87;;;20.40;60.90;;;;;;5052913;28;20852;-53
2023/01/13 10:38:18;;;;;;;21.97;21.07;;;20.40;60.90;;;;;;5052891;28;20896;-51
2023/01/13 10:40:50;;;;;;;21.20;20.40;;;20.40;60.80;;;;;;5052601;28;20446;-53
2023/01/13 10:43:17;;;;;;;21.20;20.17;;;20.40;60.80;;;;;;5052631;28;20444;-51
2023/01/13 10:45:55;;;;;;;21.00;20.20;;;20.40;60.70;;;;;;5052608;28;20550;-52
2023/01/13 10:48:22;;;;;;;21.50;20.60;;;20.40;60.70;;;;;;5052677;28;20450;-52
2023/01/13 10:50:50;;;;;;;21.03;20.23;;;20.40;60.60;;;;;;5052424;28;20829;-52
2023/01/13 10:53:19;;;;;;;21.73;20.73;;;20.40;60.50;;;;;;5052578;28;21006;-51
2023/01/13 10:55:59;;;;;;;21.40;20.53;;;20.40;60.50;;;;;;5052509;28;20464;-55
2023/01/13 10:58:27;;;;;;;22.40;21.30;;;20.30;60.30;;;;;;5052474;28;20843;-51
2023/01/13 11:01:01;;;;;;;22.37;21.20;;;20.30;60.20;;;;;;5052292;28;20448;-51
2023/01/13 11:03:39;;;;;;;22.33;21.33;;;20.30;60.20;;;;;;5052486;28;20607;-53
2023/01/13 11:06:08;;;;;;;21.90;21.00;;;20.30;60.10;;;;;;5051700;28;20558;-52
2023/01/13 11:08:43;;;;;;;21.63;20.70;;;20.30;60.10;;;;;;5052380;28;20444;-52
2023/01/13 11:11:38;;;;;;;22.17;21.17;;;20.30;60.00;;;;;;5052194;28;20502;-51
2023/01/13 11:16:59;;;;;;;20.93;20.10;;;20.30;59.80;;;;;;5052231;28;20494;-51
2023/01/13 11:19:30;;;;;;;21.40;20.50;;;20.20;59.80;;;;;;5051882;28;20937;-52
2023/01/13 11:22:05;;;;;;;21.03;20.23;;;20.20;59.70;;;;;;5052040;28;20452;-52
2023/01/13 11:27:03;;;;;;;21.93;20.80;;;20.20;59.60;;;;;;5089028;22;21023;-60
2023/01/13 11:29:38;;;;;;;21.80;20.90;;;20.20;59.60;;;;;;5051922;28;20768;-60
2023/01/13 11:32:11;;;;;;;21.60;20.70;;;20.10;59.50;;;;;;5052049;28;20538;-60
2023/01/13 11:34:41;;;;;;;21.30;20.50;;;20.10;59.50;;;;;;5051787;28;20934;-54
2023/01/13 11:37:17;;;;;;;21.17;20.37;;;20.10;59.40;;;;;;5051984;28;20586;-59
2023/01/13 11:39:54;;;;;;;21.77;20.57;;;20.10;59.40;;;;;;5051619;28;20450;-58
2023/01/13 11:42:26;;;;;;;21.20;20.30;;;20.10;59.30;;;;;;5051886;28;20480;-57
2023/01/13 11:45:04;;;;;;;21.43;20.53;;;20.10;59.30;;;;;;5051679;28;20452;-58
2023/01/13 11:47:33;;;;;;;21.90;21.00;;;20.10;59.20;;;;;;5051804;28;20790;-58
2023/01/13 11:50:02;;;;;;;21.33;20.50;;;20.10;59.20;;;;;;5051652;28;20444;-57
2023/01/13 11:52:47;;;;;;;22.60;21.40;;;20.10;59.80;;;;;;5051689;28;20475;-58
2023/01/13 11:55:26;;;;;;;21.27;20.40;;;20.10;59.20;;;;;;5051548;28;20786;-58
2023/01/13 11:58:04;;;;;;;22.30;21.10;;;20.10;59.10;;;;;;5051542;28;20490;-61
2023/01/13 12:00:40;;;;;;;22.33;21.30;;;20.10;59.10;;;;;;5051474;28;20448;-61
2023/01/13 12:03:22;;;;;;;21.97;21.07;;;20.20;59.20;;;;;;5051610;28;20825;-62
2023/01/13 12:06:02;;;;;;;21.83;20.90;;;20.10;59.10;;;;;;5051444;28;20991;-61
2023/01/13 12:08:48;;;;;;;22.63;21.57;;;20.20;59.10;;;;;;5051499;28;20478;-61
2023/01/13 12:11:23;;;;;;;22.30;21.40;;;20.20;59.20;;;;;;5051358;28;20455;-61
2023/01/13 12:14:06;;;;;;;23.07;22.07;;;20.20;59.20;;;;;;5051440;28;20542;-62
2023/01/13 12:16:33;;;;;;;21.10;20.20;;;20.20;59.10;;;;;;5051475;28;20871;-60
2023/01/13 12:19:17;;;;;;;22.47;21.43;;;20.20;59.10;;;;;;5055264;28;20574;-59
2023/01/13 12:22:01;;;;;;;21.20;20.30;;;20.10;59.00;;;;;;5055528;28;20505;-61
2023/01/13 12:24:34;;;;;;;22.23;21.23;;;20.10;59.10;;;;;;5055324;28;20439;-58
2023/01/13 12:27:05;;;;;;;21.30;20.50;;;20.10;59.00;;;;;;5055307;28;20447;-59
2023/01/13 12:29:35;;;;;;;20.87;19.87;;;20.10;59.00;;;;;;5055193;28;20440;-54
2023/01/13 12:32:04;;;;;;;21.37;20.47;;;20.10;58.90;;;;;;5055164;28;20446;-57
2023/01/13 12:34:43;;;;;;;21.30;20.20;;;20.10;58.80;;;;;;5055282;28;20444;-61
2023/01/13 12:37:15;;;;;;;20.47;19.50;;;20.10;58.80;;;;;;5055133;28;20925;-57
2023/01/13 12:39:55;;;;;;;21.03;20.10;;;20.10;58.80;;;;;;5054918;28;20940;-59
2023/01/13 12:45:28;;;;;;;21.03;20.13;;;20.10;58.80;;;;;;5032772;28;20452;-60
2023/01/13 12:47:56;;;;;;;21.43;20.43;;;20.10;58.80;;;;;;5032679;28;20437;-56
2023/01/13 12:50:42;;;;;;;21.90;20.80;;;20.10;58.80;;;;;;5042367;28;20443;-57
2023/01/13 12:53:37;;;;;;;21.57;20.63;;;20.10;58.80;;;;;;5054918;28;20444;-59
2023/01/13 12:56:32;;;;;;;21.33;20.43;;;20.00;58.70;;;;;;5054791;28;20460;-61
2023/01/13 12:59:38;;;;;;;21.53;20.53;;;20.00;58.70;;;;;;5040978;28;20901;-60
2023/01/13 13:02:34;;;;;;;21.60;20.70;;;20.00;58.70;;;;;;5054743;28;20860;-57
2023/01/13 13:05:49;;;;;;;20.43;19.73;;;20.00;58.80;;;;;;5054441;28;20537;-59
2023/01/13 13:08:22;;;;;;;21.00;20.00;;;20.00;58.90;;;;;;5054538;28;20446;-60
2023/01/13 13:13:16;;;;;;;20.80;19.90;;;20.00;58.90;;;;;;5054345;28;20925;-58
2023/01/13 13:13:58;;;;;;;20.67;19.80;;;20.00;59.00;;;;;;5054277;28;20492;-57
2023/01/13 13:16:48;;;;;;;21.97;20.77;;;20.00;59.00;;;;;;5054364;28;20460;-57
2023/01/13 13:19:42;;;;;;;22.13;21.13;;;19.90;59.00;;;;;;5054234;28;20475;-57
2023/01/13 13:22:44;;;;;;;20.93;20.03;;;19.90;59.00;;;;;;5054387;28;20451;-61
2023/01/13 13:25:25;;;;;;;21.63;20.63;;;19.90;59.10;;;;;;5054073;28;20478;-55
2023/01/13 13:28:12;;;;;;;21.37;20.57;;;19.90;59.10;;;;;;5054239;28;20439;-58
2023/01/13 13:30:47;;;;;;;21.00;20.10;;;19.90;59.10;;;;;;5053442;28;20932;-56
2023/01/13 13:33:31;;;;;;;21.67;20.80;;;19.90;59.20;;;;;;5054273;28;20446;-58
2023/01/13 13:36:11;;;;;;;21.07;20.17;;;19.90;59.20;;;;;;5054130;28;20534;-57
2023/01/13 13:47:36;;;;;;;21.10;20.30;;;19.80;59.20;;;;;;5031561;28;20425;-61
2023/01/13 13:50:07;;;;;;;21.30;20.40;;;19.80;59.20;;;;;;5048935;28;20440;-61
2023/01/13 13:52:40;;;;;;;21.30;20.40;;;19.80;59.30;;;;;;5053733;28;20440;-61